createdAt,value
2022-09-15T00:02:16.417Z,4.53
2022-09-15T00:07:19.210Z,3.87
2022-09-15T00:12:22.020Z,6.63
2022-09-15T00:17:24.932Z,5.63
2022-09-15T00:22:28.192Z,6.27
2022-09-15T00:27:32.688Z,6.57
2022-09-15T00:32:35.684Z,7.10
2022-09-15T00:37:38.331Z,9.27
2022-09-15T00:42:41.071Z,6.80
2022-09-15T00:47:44.550Z,10.10
2022-09-15T00:52:57.236Z,8.47
2022-09-15T00:58:04.162Z,7.90
2022-09-15T01:03:07.151Z,10.43
2022-09-15T01:08:19.089Z,8.87
2022-09-15T01:13:21.787Z,7.80
2022-09-15T01:18:30.382Z,9.80
2022-09-15T01:24:07.104Z,11.53
2022-09-15T01:29:37.437Z,14.23
2022-09-15T01:34:51.126Z,20.10
2022-09-15T01:39:54.565Z,20.17
2022-09-15T01:45:11.947Z,23.83
2022-09-15T01:50:20.663Z,29.00
2022-09-15T01:55:43.178Z,23.37
2022-09-15T02:00:51.788Z,23.37
2022-09-15T02:06:23.679Z,27.57
2022-09-15T02:11:28.236Z,25.20
2022-09-15T02:16:35.422Z,25.10
2022-09-15T02:22:17.784Z,23.17
2022-09-15T02:27:24.205Z,25.27
2022-09-15T02:32:28.769Z,25.40
2022-09-15T02:37:32.130Z,21.90
2022-09-15T02:42:35.285Z,26.93
2022-09-15T02:47:37.953Z,30.47
2022-09-15T02:52:40.653Z,32.00
2022-09-15T02:57:43.377Z,36.13
2022-09-15T03:02:50.337Z,35.23
2022-09-15T03:07:53.648Z,31.47
2022-09-15T03:12:56.368Z,29.87
2022-09-15T03:18:01.745Z,33.60
2022-09-15T03:23:04.461Z,34.63
2022-09-15T03:28:07.091Z,29.60
2022-09-15T03:33:09.813Z,34.83
2022-09-15T03:38:12.859Z,33.00
2022-09-15T03:43:18.614Z,32.03
2022-09-15T03:48:21.921Z,36.90
2022-09-15T03:53:24.725Z,36.70
2022-09-15T03:58:30.626Z,32.43
2022-09-15T04:03:35.728Z,33.23
2022-09-15T04:08:42.012Z,37.37
2022-09-15T04:13:45.116Z,37.90
2022-09-15T04:18:47.790Z,38.20
2022-09-15T04:23:51.224Z,41.83
2022-09-15T04:28:54.345Z,37.57
2022-09-15T04:33:57.366Z,47.73
2022-09-15T04:39:04.395Z,54.27
2022-09-15T04:44:07.003Z,53.33
2022-09-15T04:49:09.691Z,64.33
2022-09-15T04:54:12.347Z,52.67
2022-09-15T04:59:19.534Z,70.73
2022-09-15T05:04:22.385Z,66.60
2022-09-15T05:09:26.538Z,67.50
2022-09-15T05:14:30.154Z,74.20
2022-09-15T05:19:32.901Z,76.07
2022-09-15T05:24:35.587Z,78.93
2022-09-15T05:29:38.211Z,73.87
2022-09-15T05:34:40.946Z,69.20
2022-09-15T05:39:43.678Z,78.50
2022-09-15T05:44:46.311Z,70.90
2022-09-15T05:49:48.914Z,74.03
2022-09-15T05:54:54.660Z,72.20
2022-09-15T05:59:59.728Z,69.20
2022-09-15T06:05:03.144Z,67.97
2022-09-15T06:10:06.677Z,66.50
2022-09-15T06:15:09.830Z,61.27
2022-09-15T06:20:12.609Z,63.83
2022-09-15T06:25:15.509Z,66.77
2022-09-15T06:30:19.042Z,86.43
2022-09-15T06:35:21.800Z,82.53
2022-09-15T06:40:24.552Z,65.73
2022-09-15T06:45:27.270Z,63.70
2022-09-15T06:50:31.155Z,59.63
2022-09-15T06:55:33.880Z,57.40
2022-09-15T07:00:36.570Z,58.00
2022-09-15T07:05:39.298Z,54.17
2022-09-15T07:10:45.099Z,54.03
2022-09-15T07:15:58.777Z,53.47
2022-09-15T07:21:04.031Z,41.57
2022-09-15T07:26:12.619Z,43.10
2022-09-15T07:31:18.312Z,46.43
2022-09-15T07:36:21.659Z,48.03
2022-09-15T07:41:27.075Z,43.83
2022-09-15T07:46:32.223Z,46.90
2022-09-15T07:51:35.012Z,48.73
2022-09-15T07:56:37.711Z,40.00
2022-09-15T08:01:40.799Z,42.17
2022-09-15T08:06:43.473Z,37.70
2022-09-15T08:11:46.169Z,35.53
2022-09-15T08:16:48.834Z,42.57
2022-09-15T08:21:51.556Z,32.40
2022-09-15T08:26:54.763Z,32.77
2022-09-15T08:31:57.496Z,30.87
2022-09-15T08:37:00.164Z,32.53
2022-09-15T08:42:07.428Z,29.90
2022-09-15T08:47:39.104Z,31.70
2022-09-15T08:53:09.894Z,30.67
2022-09-15T08:58:38.999Z,24.70
2022-09-15T09:04:02.768Z,35.30
2022-09-15T09:09:17.753Z,24.97
2022-09-15T09:14:33.016Z,24.93
2022-09-15T09:19:54.734Z,23.37
2022-09-15T09:25:05.885Z,25.07
2022-09-15T09:30:20.092Z,24.93
2022-09-15T09:35:47.255Z,23.67
2022-09-15T09:40:50.732Z,22.10
2022-09-15T09:45:53.608Z,13.07
2022-09-15T09:50:56.755Z,13.63
2022-09-15T09:56:28.815Z,20.30
2022-09-15T10:01:31.721Z,15.63
2022-09-15T10:06:34.553Z,20.87
2022-09-15T10:11:59.201Z,20.30
2022-09-15T10:17:09.976Z,19.67
2022-09-15T10:22:34.675Z,18.00
2022-09-15T10:27:38.003Z,19.97
2022-09-15T10:32:41.703Z,18.77
2022-09-15T10:37:56.609Z,23.10
2022-09-15T10:43:04.853Z,21.07
2022-09-15T10:48:40.954Z,19.93
2022-09-15T10:54:10.968Z,21.80
2022-09-15T10:59:43.632Z,16.00
2022-09-15T11:05:22.002Z,15.07
2022-09-15T11:10:29.574Z,19.30
2022-09-15T11:15:38.181Z,20.87
2022-09-15T11:20:57.858Z,16.43
2022-09-15T11:26:14.627Z,16.37
2022-09-15T11:31:41.258Z,21.50
2022-09-15T11:36:55.945Z,14.67
2022-09-15T11:42:10.574Z,18.23
2022-09-15T11:47:39.720Z,18.33
2022-09-15T11:52:46.264Z,19.70
2022-09-15T11:57:51.564Z,13.23
2022-09-15T12:03:00.148Z,10.27
2022-09-15T12:08:27.543Z,8.80
2022-09-15T12:13:31.636Z,9.90
2022-09-15T12:18:53.243Z,9.40
2022-09-15T12:24:13.568Z,7.23
2022-09-15T12:29:30.361Z,6.63
2022-09-15T12:34:36.867Z,7.53
2022-09-15T12:39:46.234Z,7.10
2022-09-15T12:44:57.254Z,3.60
2022-09-15T12:50:11.195Z,5.53
2022-09-15T12:55:22.701Z,6.83
2022-09-15T13:00:29.634Z,6.57
2022-09-15T13:05:46.275Z,6.13
2022-09-15T13:11:03.156Z,5.70
2022-09-15T13:16:12.212Z,3.73
2022-09-15T13:21:21.176Z,7.00
2022-09-15T13:26:27.567Z,7.73
2022-09-15T13:31:53.664Z,6.87
2022-09-15T13:43:23.448Z,6.43
2022-09-15T13:48:42.542Z,6.00
2022-09-15T13:53:45.411Z,6.30
2022-09-15T13:59:01.224Z,9.10
2022-09-15T14:04:33.394Z,6.33
2022-09-15T14:09:44.927Z,8.17
2022-09-15T14:14:54.777Z,9.57
2022-09-15T14:19:59.941Z,5.83
2022-09-15T14:25:08.965Z,8.87
2022-09-15T14:30:22.657Z,6.50
2022-09-15T14:35:31.726Z,7.37
2022-09-15T14:40:39.526Z,7.07
2022-09-15T14:45:55.049Z,8.20
2022-09-15T14:51:13.430Z,9.40
2022-09-15T14:56:22.923Z,7.10
2022-09-15T15:01:42.987Z,8.57
2022-09-15T15:06:56.183Z,5.33
2022-09-15T15:12:04.671Z,6.27
2022-09-15T15:17:23.660Z,7.63
2022-09-15T15:22:27.021Z,5.33
2022-09-15T15:27:40.633Z,8.17
2022-09-15T15:32:43.778Z,8.33
2022-09-15T15:37:47.422Z,6.10
2022-09-15T15:43:02.171Z,7.90
2022-09-15T15:48:06.217Z,6.93
2022-09-15T15:53:08.883Z,8.00
2022-09-15T15:58:15.027Z,8.73
2022-09-15T16:03:18.743Z,11.43
2022-09-15T16:08:31.667Z,8.17
2022-09-15T16:13:34.662Z,6.60
2022-09-15T16:18:38.017Z,6.73
2022-09-15T16:23:40.740Z,6.63
2022-09-15T16:28:43.566Z,5.03
2022-09-15T16:33:46.299Z,8.60
2022-09-15T16:38:49.759Z,7.53
2022-09-15T16:43:59.374Z,3.77
2022-09-15T16:49:02.078Z,4.90
2022-09-15T16:54:12.487Z,10.33
2022-09-15T16:59:15.442Z,7.43
2022-09-15T17:04:19.416Z,7.53
2022-09-15T17:09:22.123Z,40.97
2022-09-15T17:14:24.921Z,10.87
2022-09-15T17:19:27.658Z,134.33
2022-09-15T17:24:30.374Z,13.43
2022-09-15T17:29:33.020Z,112.13
2022-09-15T17:34:35.684Z,11.43
2022-09-15T17:39:38.370Z,6.87
2022-09-15T17:44:40.990Z,9.00
2022-09-15T17:49:43.632Z,37.27
2022-09-15T17:54:46.266Z,7.27
2022-09-15T17:59:48.945Z,4.07
2022-09-15T18:04:51.930Z,73.03
2022-09-15T18:09:55.674Z,12.07
2022-09-15T18:14:58.359Z,6.67
2022-09-15T18:20:01.529Z,6.23
2022-09-15T18:25:04.407Z,13.27
2022-09-15T18:30:07.796Z,6.43
2022-09-15T18:35:14.183Z,5.80
2022-09-15T18:40:20.507Z,5.80
2022-09-15T18:45:23.680Z,8.07
2022-09-15T18:50:26.719Z,6.20
2022-09-15T18:55:29.390Z,7.70
2022-09-15T19:00:32.210Z,6.40
2022-09-15T19:05:35.457Z,4.10
2022-09-15T19:10:40.832Z,7.63
2022-09-15T19:15:44.264Z,4.53
2022-09-15T19:20:47.127Z,7.83
2022-09-15T19:25:49.853Z,5.10
2022-09-15T19:30:52.603Z,7.07
2022-09-15T19:36:10.781Z,5.60
2022-09-15T19:41:18.429Z,7.63
2022-09-15T19:46:24.352Z,9.17
2022-09-15T19:51:27.323Z,6.07
2022-09-15T19:56:30.357Z,6.77
2022-09-15T20:01:33.283Z,7.33
2022-09-15T20:06:36.925Z,6.47
2022-09-15T20:11:39.627Z,4.70
2022-09-15T20:16:42.459Z,10.77
2022-09-15T20:21:51.570Z,6.67
2022-09-15T20:26:54.585Z,4.63
2022-09-15T20:31:57.594Z,8.50
2022-09-15T20:37:00.250Z,4.33
2022-09-15T20:42:02.974Z,5.43
2022-09-15T20:47:05.817Z,2.00
2022-09-15T20:52:08.473Z,5.53
2022-09-15T20:57:11.183Z,3.77
2022-09-15T21:02:13.897Z,3.53
2022-09-15T21:07:16.858Z,3.13
2022-09-15T21:12:19.470Z,3.90
2022-09-15T21:17:23.185Z,3.37
2022-09-15T21:22:26.039Z,2.13
2022-09-15T21:27:30.073Z,6.50
2022-09-15T21:32:33.904Z,4.83
2022-09-15T21:37:36.824Z,6.20
2022-09-15T21:42:39.528Z,2.40
2022-09-15T21:47:42.209Z,3.17
2022-09-15T21:52:44.890Z,5.90
2022-09-15T21:57:47.601Z,3.87
2022-09-15T22:02:52.392Z,3.83
2022-09-15T22:07:55.317Z,4.67
2022-09-15T22:12:58.310Z,4.37
2022-09-15T22:18:01.376Z,4.60
2022-09-15T22:23:04.038Z,3.10
2022-09-15T22:28:06.619Z,3.63
2022-09-15T22:33:09.316Z,3.33
2022-09-15T22:38:11.965Z,4.60
2022-09-15T22:43:14.632Z,4.33
2022-09-15T22:48:17.424Z,4.27
2022-09-15T22:53:21.194Z,5.60
2022-09-15T22:58:26.496Z,4.37
2022-09-15T23:03:29.155Z,4.07
2022-09-15T23:08:32.762Z,8.80
2022-09-15T23:13:35.679Z,3.77
2022-09-15T23:18:38.556Z,4.27
2022-09-15T23:23:46.329Z,7.20
2022-09-15T23:28:49.662Z,6.20
2022-09-15T23:33:52.332Z,6.40
2022-09-15T23:38:55.201Z,6.43
2022-09-15T23:43:59.893Z,8.83
2022-09-15T23:49:02.831Z,5.67
2022-09-15T23:54:06.480Z,5.37
2022-09-15T23:59:09.666Z,4.03
